Grand Princess — ZCBU5 — position and weather

sailwx.info

Track history (hours):
 
Tides and Currents Weather Stations Pressure Air Temp Water Temp Dewpoint Dewpoint Depression Visibility Wind Speed Wind Dir Waves Ship Positions

Grand Princess

Operator: Princess Cruises

Last reported at 2019-Sep-20 23:00 UTC. Time now 2019-Sep-21 00:39 UTC.
Position N 50°30' W 129°18'.

Length 289.5 m; beam 36 m; draft 8.5 m.

Type: Passenger vessel. MMSI: 310327000.

Wind from 230 at 14 knots

Barometer 1022.6 mb
Air temperature 16.6 ° C
Visibility: greater than 5.4 NM
Dewpoint 13.0 ° C
Water temperature 12.0 ° C

Date/timePositionNaut miles runAvg speedWind from/ knotsBaromVisibWave heightAir tempDewpointWater temp
2019-Sep-20 23:00N 50°30' W 129°18'1820.5 230 / 141022.6 5.4 16.613.012.0
2019-Sep-20 22:08N 50°41' W 129°40'1019.8
2019-Sep-20 21:36N 50°48' W 129°53'419.6
2019-Sep-20 21:24N 50°50' W 129°57'1619.5
2019-Sep-20 20:36N 51°01' W 130°15'4019.6
2019-Sep-20 18:34N 51°30' W 130°58'520.0
2019-Sep-20 18:21N 51°34' W 131°03'819.9
2019-Sep-20 17:55N 51°40' W 131°12'6917.6
2019-Sep-20 14:00N 52°30' W 132°30'12215.2 220 / 161019.6 1.1 16.012.4 9.2
2019-Sep-20 06:00N 54°30' W 133°06'12224.5 180 / 151018.910.8 14.012.214.0
2019-Sep-20 01:00N 56°24' W 134°24'   210 / 161013.6 1.1 14.012.2
2019-Sep-17 14:28N 58°09' W 135°16'817.3
2019-Sep-17 13:59N 58°13' W 135°30'817.1
2019-Sep-17 13:30N 58°17' W 135°43'816.0
2019-Sep-17 13:00N 58°19' W 135°58'814.9
2019-Sep-17 12:29N 58°18' W 136°12'915.6
2019-Sep-17 11:56N 58°15' W 136°28'199 8.0
2019-Sep-16 11:00N 55°06' W 134°36'11022.1 190 / 111005.210.8 14.012.215.0
2019-Sep-16 06:00N 53°24' W 133°24'16420.5 320 / 121011.110.8 14.012.215.0
2019-Sep-15 22:00N 50°54' W 131°36'25419.5 360 / 201008.410.8 16.012.415.0
2019-Sep-15 09:00N 47°00' W 129°06'32821.9 270 / 251011.910.8 17.013.520.0
2019-Sep-14 18:00N 42°00' W 126°00'19620.1 330 / 161020.010.8 17.016.217.0
2019-Sep-14 08:15N 39°01' W 124°16'418.0
2019-Sep-14 08:00N 38°57' W 124°12'918.6
2019-Sep-14 07:30N 38°50' W 124°05'918.6
2019-Sep-14 07:01N 38°43' W 123°57'1019.2
2019-Sep-14 06:30N 38°36' W 123°49'1019.1
2019-Sep-14 06:00N 38°29' W 123°41'6449.4
2019-Sep-14 06:00N 38°24' W 123°36'3 6.6 330 / 321016.610.8 16.014.312.0
2019-Sep-14 05:31N 38°21' W 123°33'917.7
2019-Sep-14 05:00N 38°15' W 123°26'713.1
2019-Sep-14 04:30N 38°10' W 123°21'510.2
2019-Sep-14 04:00N 38°06' W 123°17'510.4
2019-Sep-14 03:30N 38°02' W 123°12'5 9.7
2019-Sep-14 03:00N 37°58' W 123°08'510.0
2019-Sep-14 02:30N 37°56' W 123°03'510.2
2019-Sep-14 02:00N 37°53' W 122°57'510.3
2019-Sep-14 01:30N 37°51' W 122°51'510.0
2019-Sep-14 01:00N 37°48' W 122°46'5 9.8
2019-Sep-14 00:30N 37°45' W 122°41'611.6
2019-Sep-14 00:00N 37°47' W 122°34'714.2
2019-Sep-13 23:30N 37°49' W 122°25'1 2.0
2019-Sep-13 22:58N 37°48' W 122°24'0 0.0
2019-Sep-13 22:28N 37°48' W 122°24'0 0.0
2019-Sep-13 21:58N 37°48' W 122°24'0 0.0
2019-Sep-13 21:28N 37°48' W 122°24'0 0.0
2019-Sep-13 20:58N 37°48' W 122°24'0 0.0
2019-Sep-13 20:28N 37°48' W 122°24'0 0.0
2019-Sep-13 19:58N 37°48' W 122°24'0 0.0
2019-Sep-13 19:28N 37°48' W 122°24'0 0.0
2019-Sep-13 18:58N 37°48' W 122°24'0 0.0
2019-Sep-13 18:28N 37°48' W 122°24'0 0.0
2019-Sep-13 17:58N 37°48' W 122°24'0 0.0
2019-Sep-13 17:28N 37°48' W 122°24'0 0.0
2019-Sep-13 16:58N 37°48' W 122°24'0 0.0
2019-Sep-13 16:28N 37°48' W 122°24'0 0.0
2019-Sep-13 15:58N 37°48' W 122°24'0 0.0
2019-Sep-13 15:28N 37°48' W 122°24'0 0.0
2019-Sep-13 14:55N 37°48' W 122°24'0 0.0
2019-Sep-13 14:28N 37°48' W 122°24'0 0.0
2019-Sep-13 13:58N 37°48' W 122°24'0 0.4
2019-Sep-13 13:30N 37°48' W 122°24'3 5.9
2019-Sep-13 13:00N 37°49' W 122°27'612.4
2019-Sep-13 12:30N 37°47' W 122°35'611.6
2019-Sep-13 12:00N 37°46' W 122°42'510.2
2019-Sep-13 11:30N 37°47' W 122°48'5 9.9
2019-Sep-13 11:00N 37°49' W 122°54'5 9.9
2019-Sep-13 10:30N 37°52' W 122°59'5 9.9
2019-Sep-13 10:00N 37°54' W 123°05'510.0
2019-Sep-13 09:30N 37°57' W 123°10'510.0
2019-Sep-13 09:00N 38°01' W 123°14'510.2
2019-Sep-13 08:31N 38°04' W 123°18'510.6
2019-Sep-13 08:01N 38°08' W 123°23'917.4
2019-Sep-13 07:31N 38°15' W 123°30'918.2
2019-Sep-13 07:01N 38°22' W 123°37'1019.9
2019-Sep-13 06:30N 38°30' W 123°45'1020.0
2019-Sep-13 06:01N 38°38' W 123°53'1020.7
2019-Sep-13 05:31N 38°46' W 124°01'1020.5
2019-Sep-13 05:00N 38°54' W 124°10'221593.6
2019-Sep-13 05:00N 38°36' W 123°54'3265.5 330 / 251019.810.8 17.014.415.0
2019-Sep-13 04:31N 39°02' W 124°17'1621.9
2019-Sep-13 03:47N 39°17' W 124°25'622.1
2019-Sep-13 03:30N 39°22' W 124°29'1122.4
2019-Sep-13 03:01N 39°32' W 124°34'1121.9
2019-Sep-13 02:30N 39°42' W 124°40'1936.2
2019-Sep-13 02:00N 40°00' W 124°48'24720.6 350 / 281023.810.8 18.015.517.0
2019-Sep-12 14:00N 44°06' W 125°18'24121.8 210 / 81023.810.8 18.015.120.0
2019-Sep-12 02:56N 48°06' W 125°46'918.3
2019-Sep-12 02:28N 48°15' W 125°44'920.7
2019-Sep-12 02:00N 48°20' W 125°32'1020.9
2019-Sep-12 01:30N 48°26' W 125°19'1021.0
2019-Sep-12 01:00N 48°30' W 125°05'1121.3
2019-Sep-12 00:30N 48°31' W 124°49'1121.9
2019-Sep-12 00:01N 48°28' W 124°33'1121.7
2019-Sep-11 23:31N 48°23' W 124°18'1121.4
2019-Sep-11 23:00N 48°19' W 124°03'1221.2
2019-Sep-11 22:28N 48°17' W 123°46'920.1
2019-Sep-11 22:01N 48°16' W 123°32'714.3
2019-Sep-11 21:31N 48°21' W 123°26'4 8.0
2019-Sep-11 21:00N 48°25' W 123°24'0 0.0
2019-Sep-11 20:29N 48°25' W 123°24'0 0.0
2019-Sep-11 19:59N 48°25' W 123°24'0 0.0
2019-Sep-11 19:29N 48°25' W 123°24'0 0.0
2019-Sep-11 18:59N 48°25' W 123°24'0 0.0
2019-Sep-11 18:29N 48°25' W 123°24'0 0.0
2019-Sep-11 17:59N 48°25' W 123°24'0 0.0
2019-Sep-11 17:29N 48°25' W 123°24'0 0.0
2019-Sep-11 16:59N 48°25' W 123°24'0 0.0
2019-Sep-11 16:29N 48°25' W 123°24'0 0.0
2019-Sep-11 15:59N 48°25' W 123°24'0 0.0
2019-Sep-11 15:29N 48°25' W 123°24'0 0.0
2019-Sep-11 14:59N 48°25' W 123°24'0 0.0
2019-Sep-11 14:31N 48°25' W 123°24'0 0.0
2019-Sep-11 14:00N 48°25' W 123°24'1 1.3
2019-Sep-11 13:30N 48°24' W 123°24'510.1
2019-Sep-11 13:00N 48°19' W 123°25'510.7
2019-Sep-11 12:30N 48°15' W 123°28'611.9
2019-Sep-11 12:00N 48°13' W 123°37'611.9
2019-Sep-11 11:30N 48°13' W 123°46'612.9
2019-Sep-11 11:00N 48°14' W 123°56'714.3
2019-Sep-11 10:30N 48°17' W 124°05'917.2
2019-Sep-11 10:00N 48°20' W 124°17'918.0
2019-Sep-11 09:30N 48°24' W 124°29'917.1
2019-Sep-11 09:00N 48°28' W 124°41'917.5
2019-Sep-11 08:30N 48°29' W 124°54'1019.7
2019-Sep-11 08:00N 48°29' W 125°09'918.5
2019-Sep-11 07:30N 48°32' W 125°22'1019.2
2019-Sep-11 07:00N 48°37' W 125°34'1019.2
2019-Sep-11 06:30N 48°44' W 125°45'1019.3
2019-Sep-11 06:00N 48°49' W 125°57'1019.4
2019-Sep-11 05:30N 48°55' W 126°09'1019.9
2019-Sep-11 05:00N 49°00' W 126°21'1820.0
2019-Sep-11 04:08N 49°10' W 126°44'8119.8
2019-Sep-11 00:02N 50°01' W 128°22'119.7
2019-Sep-10 23:59N 50°01' W 128°23'1320.2
2019-Sep-10 23:20N 50°09' W 128°39'  
Track history (hours):
 
Tides and Currents Weather Stations Pressure Air Temp Water Temp Dewpoint Dewpoint Depression Visibility Wind Speed Wind Dir Waves Ship Positions

Grand Princess

Operator: Princess Cruises

Last reported at 2019-Sep-20 23:00 UTC. Time now 2019-Sep-21 00:39 UTC.
Position N 50°30' W 129°18'.

Length 289.5 m; beam 36 m; draft 8.5 m.

Type: Passenger vessel. MMSI: 310327000.

Wind from 230 at 14 knots

Barometer 1022.6 mb
Air temperature 16.6 ° C
Visibility: greater than 5.4 NM
Dewpoint 13.0 ° C
Water temperature 12.0 ° C

Date/timePositionNaut miles runAvg speedWind from/ knotsBaromVisibWave heightAir tempDewpointWater temp
2019-Sep-20 23:00N 50°30' W 129°18'1820.5 230 / 141022.6 5.4 16.613.012.0
2019-Sep-20 22:08N 50°41' W 129°40'1019.8
2019-Sep-20 21:36N 50°48' W 129°53'419.6
2019-Sep-20 21:24N 50°50' W 129°57'1619.5
2019-Sep-20 20:36N 51°01' W 130°15'4019.6
2019-Sep-20 18:34N 51°30' W 130°58'520.0
2019-Sep-20 18:21N 51°34' W 131°03'819.9
2019-Sep-20 17:55N 51°40' W 131°12'6917.6
2019-Sep-20 14:00N 52°30' W 132°30'12215.2 220 / 161019.6 1.1 16.012.4 9.2
2019-Sep-20 06:00N 54°30' W 133°06'12224.5 180 / 151018.910.8 14.012.214.0
2019-Sep-20 01:00N 56°24' W 134°24'   210 / 161013.6 1.1 14.012.2
2019-Sep-17 14:28N 58°09' W 135°16'817.3
2019-Sep-17 13:59N 58°13' W 135°30'817.1
2019-Sep-17 13:30N 58°17' W 135°43'816.0
2019-Sep-17 13:00N 58°19' W 135°58'814.9
2019-Sep-17 12:29N 58°18' W 136°12'915.6
2019-Sep-17 11:56N 58°15' W 136°28'199 8.0
2019-Sep-16 11:00N 55°06' W 134°36'11022.1 190 / 111005.210.8 14.012.215.0
2019-Sep-16 06:00N 53°24' W 133°24'16420.5 320 / 121011.110.8 14.012.215.0
2019-Sep-15 22:00N 50°54' W 131°36'25419.5 360 / 201008.410.8 16.012.415.0
2019-Sep-15 09:00N 47°00' W 129°06'32821.9 270 / 251011.910.8 17.013.520.0
2019-Sep-14 18:00N 42°00' W 126°00'19620.1 330 / 161020.010.8 17.016.217.0
2019-Sep-14 08:15N 39°01' W 124°16'418.0
2019-Sep-14 08:00N 38°57' W 124°12'918.6
2019-Sep-14 07:30N 38°50' W 124°05'918.6
2019-Sep-14 07:01N 38°43' W 123°57'1019.2
2019-Sep-14 06:30N 38°36' W 123°49'1019.1
2019-Sep-14 06:00N 38°29' W 123°41'6449.4
2019-Sep-14 06:00N 38°24' W 123°36'3 6.6 330 / 321016.610.8 16.014.312.0
2019-Sep-14 05:31N 38°21' W 123°33'917.7
2019-Sep-14 05:00N 38°15' W 123°26'713.1
2019-Sep-14 04:30N 38°10' W 123°21'510.2
2019-Sep-14 04:00N 38°06' W 123°17'510.4
2019-Sep-14 03:30N 38°02' W 123°12'5 9.7
2019-Sep-14 03:00N 37°58' W 123°08'510.0
2019-Sep-14 02:30N 37°56' W 123°03'510.2
2019-Sep-14 02:00N 37°53' W 122°57'510.3
2019-Sep-14 01:30N 37°51' W 122°51'510.0
2019-Sep-14 01:00N 37°48' W 122°46'5 9.8
2019-Sep-14 00:30N 37°45' W 122°41'611.6
2019-Sep-14 00:00N 37°47' W 122°34'714.2
2019-Sep-13 23:30N 37°49' W 122°25'1 2.0
2019-Sep-13 22:58N 37°48' W 122°24'0 0.0
2019-Sep-13 22:28N 37°48' W 122°24'0 0.0
2019-Sep-13 21:58N 37°48' W 122°24'0 0.0
2019-Sep-13 21:28N 37°48' W 122°24'0 0.0
2019-Sep-13 20:58N 37°48' W 122°24'0 0.0
2019-Sep-13 20:28N 37°48' W 122°24'0 0.0
2019-Sep-13 19:58N 37°48' W 122°24'0 0.0
2019-Sep-13 19:28N 37°48' W 122°24'0 0.0
2019-Sep-13 18:58N 37°48' W 122°24'0 0.0
2019-Sep-13 18:28N 37°48' W 122°24'0 0.0
2019-Sep-13 17:58N 37°48' W 122°24'0 0.0
2019-Sep-13 17:28N 37°48' W 122°24'0 0.0
2019-Sep-13 16:58N 37°48' W 122°24'0 0.0
2019-Sep-13 16:28N 37°48' W 122°24'0 0.0
2019-Sep-13 15:58N 37°48' W 122°24'0 0.0
2019-Sep-13 15:28N 37°48' W 122°24'0 0.0
2019-Sep-13 14:55N 37°48' W 122°24'0 0.0
2019-Sep-13 14:28N 37°48' W 122°24'0 0.0
2019-Sep-13 13:58N 37°48' W 122°24'0 0.4
2019-Sep-13 13:30N 37°48' W 122°24'3 5.9
2019-Sep-13 13:00N 37°49' W 122°27'612.4
2019-Sep-13 12:30N 37°47' W 122°35'611.6
2019-Sep-13 12:00N 37°46' W 122°42'510.2
2019-Sep-13 11:30N 37°47' W 122°48'5 9.9
2019-Sep-13 11:00N 37°49' W 122°54'5 9.9
2019-Sep-13 10:30N 37°52' W 122°59'5 9.9
2019-Sep-13 10:00N 37°54' W 123°05'510.0
2019-Sep-13 09:30N 37°57' W 123°10'510.0
2019-Sep-13 09:00N 38°01' W 123°14'510.2
2019-Sep-13 08:31N 38°04' W 123°18'510.6
2019-Sep-13 08:01N 38°08' W 123°23'917.4
2019-Sep-13 07:31N 38°15' W 123°30'918.2
2019-Sep-13 07:01N 38°22' W 123°37'1019.9
2019-Sep-13 06:30N 38°30' W 123°45'1020.0
2019-Sep-13 06:01N 38°38' W 123°53'1020.7
2019-Sep-13 05:31N 38°46' W 124°01'1020.5
2019-Sep-13 05:00N 38°54' W 124°10'221593.6
2019-Sep-13 05:00N 38°36' W 123°54'3265.5 330 / 251019.810.8 17.014.415.0
2019-Sep-13 04:31N 39°02' W 124°17'1621.9
2019-Sep-13 03:47N 39°17' W 124°25'622.1
2019-Sep-13 03:30N 39°22' W 124°29'1122.4
2019-Sep-13 03:01N 39°32' W 124°34'1121.9
2019-Sep-13 02:30N 39°42' W 124°40'1936.2
2019-Sep-13 02:00N 40°00' W 124°48'24720.6 350 / 281023.810.8 18.015.517.0
2019-Sep-12 14:00N 44°06' W 125°18'24121.8 210 / 81023.810.8 18.015.120.0
2019-Sep-12 02:56N 48°06' W 125°46'918.3
2019-Sep-12 02:28N 48°15' W 125°44'920.7
2019-Sep-12 02:00N 48°20' W 125°32'1020.9
2019-Sep-12 01:30N 48°26' W 125°19'1021.0
2019-Sep-12 01:00N 48°30' W 125°05'1121.3
2019-Sep-12 00:30N 48°31' W 124°49'1121.9
2019-Sep-12 00:01N 48°28' W 124°33'1121.7
2019-Sep-11 23:31N 48°23' W 124°18'1121.4
2019-Sep-11 23:00N 48°19' W 124°03'1221.2
2019-Sep-11 22:28N 48°17' W 123°46'920.1
2019-Sep-11 22:01N 48°16' W 123°32'714.3
2019-Sep-11 21:31N 48°21' W 123°26'4 8.0
2019-Sep-11 21:00N 48°25' W 123°24'0 0.0
2019-Sep-11 20:29N 48°25' W 123°24'0 0.0
2019-Sep-11 19:59N 48°25' W 123°24'0 0.0
2019-Sep-11 19:29N 48°25' W 123°24'0 0.0
2019-Sep-11 18:59N 48°25' W 123°24'0 0.0
2019-Sep-11 18:29N 48°25' W 123°24'0 0.0
2019-Sep-11 17:59N 48°25' W 123°24'0 0.0
2019-Sep-11 17:29N 48°25' W 123°24'0 0.0
2019-Sep-11 16:59N 48°25' W 123°24'0 0.0
2019-Sep-11 16:29N 48°25' W 123°24'0 0.0
2019-Sep-11 15:59N 48°25' W 123°24'0 0.0
2019-Sep-11 15:29N 48°25' W 123°24'0 0.0
2019-Sep-11 14:59N 48°25' W 123°24'0 0.0
2019-Sep-11 14:31N 48°25' W 123°24'0 0.0
2019-Sep-11 14:00N 48°25' W 123°24'1 1.3
2019-Sep-11 13:30N 48°24' W 123°24'510.1
2019-Sep-11 13:00N 48°19' W 123°25'510.7
2019-Sep-11 12:30N 48°15' W 123°28'611.9
2019-Sep-11 12:00N 48°13' W 123°37'611.9
2019-Sep-11 11:30N 48°13' W 123°46'612.9
2019-Sep-11 11:00N 48°14' W 123°56'714.3
2019-Sep-11 10:30N 48°17' W 124°05'917.2
2019-Sep-11 10:00N 48°20' W 124°17'918.0
2019-Sep-11 09:30N 48°24' W 124°29'917.1
2019-Sep-11 09:00N 48°28' W 124°41'917.5
2019-Sep-11 08:30N 48°29' W 124°54'1019.7
2019-Sep-11 08:00N 48°29' W 125°09'918.5
2019-Sep-11 07:30N 48°32' W 125°22'1019.2
2019-Sep-11 07:00N 48°37' W 125°34'1019.2
2019-Sep-11 06:30N 48°44' W 125°45'1019.3
2019-Sep-11 06:00N 48°49' W 125°57'1019.4
2019-Sep-11 05:30N 48°55' W 126°09'1019.9
2019-Sep-11 05:00N 49°00' W 126°21'1820.0
2019-Sep-11 04:08N 49°10' W 126°44'8119.8
2019-Sep-11 00:02N 50°01' W 128°22'119.7
2019-Sep-10 23:59N 50°01' W 128°23'1320.2
2019-Sep-10 23:20N 50°09' W 128°39'  

Dump ship's entire track history